Briefing drone pour Seyssinet-pariset

Rechercher une autre localisation

Conditions de vol :


Nous sommes le : Mardi 28 septembre 2021
Il est 22:45 UTC (00:45 LT)

Lever de soleil : 05:05 UTC (07:05 LT)
Coucher de soleil : 17:50 UTC (19:50 LT)

Météo

L'essentiel des conditions de vol

VIGILANCE MÉTÉO FRANCE - Isère (38)
Pas de vigilances particulieres
CARTE TEMSI
CARTES DES FRONTS
METAR de LFLS
LFLS 272230Z AUTO VRB02KT 9999 BKN064 16/10 Q1025

Date d'émission: 27/09/2021
Heure d'émission: 22:30 UTC
Vent: Variable 2 KT (4 km/h)
Visibilité horizontale: > 10 km
Plafond :
- Nuages morcelés à 6400ft (1951m)
Température: 16 °C
Point de rosée: 10 °C
Humidité: 68%
Pression (QNH): 1025 hPa
TAF de LFLS
LFLS 271903Z 2719/2815 CNL

Conditions prévues :

Heure d'émission : Bulletin éffectué le 27 à 19:00 UTC
Prévision : Valide du 27 a 19:00 UTC au 28 a 15:00 UTC
Nuages : à 0ft (0 m)
WEBCAM POUR SEYSSINET-PARISET

Réglementation

Voler en sécurité

CARTES AERONAUTIQUE 1/500.000
CARTES VAC (LFLS)
SUP AIP




Chargement des AIP...
NOTAM (SEYSSINET-PARISET + Terrain à proximité / FIR )




Chargement des NOTAMS...
CONTACT PREFECTURE 38


Avertissement : Les données mises à disposition sont indicatives. Oxygène Drone ne pourra être tenu responsable de dégâts causés aux biens et aux personnes.